AirNav   Pilot Hours Calculator
 
 1525 users online  

7F5 Canton-Hackney Airport
Canton, Texas, USA

GOING TO CANTON?


FAA INFORMATION EFFECTIVE 15 AUGUST 2019

Location

FAA Identifier: 7F5
Lat/Long: 32-35-10.4820N 095-51-45.8770W
32-35.174700N 095-51.764617W
32.5862450,-95.8627436
(estimated)
Elevation: 500 ft. / 152 m (estimated)
Variation: 06E (1985)
From city: 2 miles N of CANTON, TX
Time zone: UTC -5 (UTC -6 during Standard Time)
Zip code: 75103

Airport Operations

Airport use: Open to the public
Activation date: 06/1968
Control tower: no
ARTCC: FORT WORTH CENTER
FSS: FORT WORTH FLIGHT SERVICE STATION
NOTAMs facility: FTW (NOTAM-D service available)
Attendance: UNATNDD
Wind indicator: yes
Segmented circle: no
Lights: SS-SR

Airport Communications

CTAF: 122.9

Nearby radio navigation aids

VOR radial/distance  VOR name  Freq  Var
TYRr295/27.0TYLER VOR/DME114.2006E
CQYr031/30.0CEDAR CREEK VORTAC114.8006E
UIMr227/30.6QUITMAN VOR/DME114.0008E
FZTr325/35.0FRANKSTON VOR/DME111.4006E

 
NDB name  Hdg/Dist  Freq  Var  ID
TRAVIS112/22.126006EAVZ .- ...- --..
ATHENS350/25.726906EAHX .- .... -..-
CROSSROADS001/31.721508ECSZ -.-. ... --..
CADDO MILLS138/33.531606EMII -- .. ..
MESQUITE109/36.224803EPQF .--. --.- ..-.
AMBASSADOR263/37.940407EABG .- -... --.

Airport Services

Airframe service: NONE
Powerplant service: NONE
Bottled oxygen: NONE
Bulk oxygen: NONE

Runway Information

Runway 18/36

Dimensions: 3750 x 50 ft. / 1143 x 15 m
Surface: asphalt, in poor condition
NMRS CRACKS, LOOSE STONES, & AGGREGATE, PVMNT PATCHES. VEGETATION GROWING THRU PVMNT.
Weight bearing capacity: 
Single wheel: 5.5
Runway edge lights: non-standard
NSTD LIRL; ONLY MIDDLE 1,200 FT OF RWY LGTD ON WEST SIDE ONLY
Runway edge markings: MARKINGS FADED, NSTD COLOR - WHITE & YELLOW.
NSTD SMALL RWY NRS; ONLY 35 FT HIGH. NO DSPLCD THLD MARKINGS.
RUNWAY 18  RUNWAY 36
Traffic pattern: leftleft
Displaced threshold: 103 ft.70 ft.
Markings: NSTD, in poor conditionNSTD, in poor condition
Obstructions: none
NMRS CLOSE-IN OBSTNS: 4 FT FENCE, 0 TO 125 FT DSTC, 72-125 FT R; 50 FT TREE, 104 FT DSTC, 60 FT R; 60 FT TREE, 0 FT DSTC, 60 FT R, 3 FT STEEL POSTS & C ABLE, 0-104 FT DSTC, 75 FT R.
15 ft. pline, marked, 200 ft. from runway
NMRSS CLOSE-IN OBSTNS: 15 FT PLINE, 190-199 FT DSTC, ACROSS ENTIRE APCH; TWO 15 FT ANTENNA TWRS, 184 FT DSTC, 39 FT L, & 55 FT R; 12 FT GOLF BALL, 150 FT DSTC, 124 FT L; 3 FT STEEL POSTS & CABLE, PARALLEL TO RWY, 0-199 FT DSTC, 77 FT L.

Airport Ownership and Management from official FAA records

Ownership: Publicly-owned
Owner: CITY OF CANTON
PO BOX 245
CANTON, TX 75103
Phone (903) 567-1841
Manager: WALT LEHMANN
PO BOX 245
CANTON, TX 75103
Phone (903) 288-0392
EMERGENCY PHONE: 903-567-4991.

Airport Operational Statistics

Aircraft operations: avg 50/month *
67% transient general aviation
33% local general aviation
* for 12-month period ending 30 March 2019

Additional Remarks

ARPT CLSD TO ACFT OVER 10,000 LBS.
RWY 18/36 +3 FT POSTS AND CABLE 75 FT FM RY CNTRLN WEST SIDE OF RWY.
RWY 18/36 NO LINE OF SIGHT BTN THLDS.
RWY 36 90 FT UNMARKED, UNLGTD ANT, 850 FT DSTC, 190 FT L, APCH RATIO 7:1.
FOR CD CTC FORT WORTH ARTCC AT 817-858-7584.

Instrument Procedures

There are no published instrument procedures at 7F5.

Some nearby airports with instrument procedures:

3F9 - Mineola Airport-Wisener Field (19 nm E)
KJDD - Wood County Airport (21 nm NE)
KTRL - Terrell Municipal Airport (22 nm W)
F44 - Athens Municipal Airport (25 nm S)
KTYR - Tyler Pounds Regional Airport (27 nm SE)
 
Loc | Ops | Rwys | IFR | FBO | Links
Com | Nav | Svcs | Stats | Notes
Area around 7F5 (Canton-Hackney Airport)
 
Road maps at: MapQuest Bing Google
 
Aerial photo
WARNING: Photo may not be current or correct
Aerial photo of 7F5 (Canton-Hackney Airport)
Photo contributed by J. Herz

Do you have a better or more recent aerial photo of Canton-Hackney Airport that you would like to share? If so, please send us your photo.

 
Sectional chart

 
Airport distance calculator
Flying to Canton-Hackney Airport? Find the distance to fly.

From to 7F5

Sunrise and sunset
Times for 22-Aug-2019
 Local
(UTC-5)
 Zulu
(UTC)
Morning civil twilight06:2711:27
Sunrise06:5311:53
Sunset20:0001:00
Evening civil twilight20:2501:25

Current date and time
Zulu (UTC)  22-Aug-2019 19:08:51
Local (UTC-5)  22-Aug-2019 14:08:51
 
METAR
KJDD 
21nm NE 
221855Z AUTO 22009KT 10SM CLR 34/20 A2993 RMK AO2
KTRL 
22nm W 
221853Z AUTO 21007KT 10SM CLR 36/20 A2992 RMK AO2 SLP124 T03560200
KF44 
25nm S 
221855Z AUTO 22006KT A2992 RMK AO2 PWINO
KTYR 
27nm SE 
221853Z 22007KT 10SM CLR 35/18 A2994 RMK AO2 SLP128 T03500183
KGVT 
31nm N 
221855Z AUTO 16007G17KT 135V195 10SM CLR 36/17 A2993 RMK AO2
KHQZ 
35nm W 
221850Z 14007G12KT 10SM SCT060 35/18 A2992
KF46 
36nm NW 
221855Z AUTO 21007KT 10SM CLR 35/20 A2993 RMK AO2 T03460199
KSLR 
37nm N 
221855Z AUTO 20006KT 10SM CLR 36/19 A2996 RMK AO2 T03610187
TAF
KTYR 
27nm SE 
221746Z 2218/2318 24009KT P6SM SCT050 FM230000 16006KT P6SM SKC FM231500 18006KT P6SM SCT035
NOTAMs
Click for the latest NOTAMs
NOTAMs are issued by the DoD/FAA and will open in a separate window not controlled by AirNav.

 

 
 

Would you like to see your business listed on this page?

 If your business provides an interesting product or service to pilots, flight crews, aircraft, or users of the Canton-Hackney Airport, you should consider listing it here.  To start the listing process, click on the button below
 
Add a business
 

Other Pages about Canton-Hackney Airport

Update a link
 
Copyright © AirNav, LLC. All rights reserved. Privacy Policy  Contact